createdAt,value
2023-03-25T00:01:08.537Z,4.93
2023-03-25T00:03:37.661Z,6.65
2023-03-25T00:06:06.278Z,7.55
2023-03-25T00:08:32.996Z,8.73
2023-03-25T00:11:01.225Z,6.75
2023-03-25T00:13:27.739Z,8.60
2023-03-25T00:15:57.615Z,4.97
2023-03-25T00:18:28.605Z,7.00
2023-03-25T00:20:55.858Z,5.10
2023-03-25T00:23:22.811Z,5.43
2023-03-25T00:25:52.119Z,7.28
2023-03-25T00:28:19.081Z,6.82
2023-03-25T00:30:46.005Z,7.75
2023-03-25T00:33:13.102Z,8.73
2023-03-25T00:35:44.048Z,7.85
2023-03-25T00:38:11.405Z,9.05
2023-03-25T00:40:38.602Z,4.97
2023-03-25T00:43:05.920Z,5.90
2023-03-25T00:45:33.502Z,8.25
2023-03-25T00:48:00.496Z,5.07
2023-03-25T00:50:27.170Z,6.75
2023-03-25T00:52:54.016Z,9.27
2023-03-25T00:55:21.401Z,8.43
2023-03-25T00:57:48.024Z,7.12
2023-03-25T01:00:17.293Z,8.88
2023-03-25T01:02:45.143Z,7.53
2023-03-25T01:05:11.731Z,7.80
2023-03-25T01:07:39.569Z,6.18
2023-03-25T01:10:08.415Z,3.40
2023-03-25T01:12:34.899Z,5.93
2023-03-25T01:15:01.678Z,4.30
2023-03-25T01:17:29.848Z,4.95
2023-03-25T01:19:56.628Z,5.00
2023-03-25T01:22:23.272Z,3.65
2023-03-25T01:24:50.029Z,6.78
2023-03-25T01:27:16.610Z,5.37
2023-03-25T01:29:43.296Z,7.57
2023-03-25T01:32:10.309Z,7.72
2023-03-25T01:34:37.991Z,4.72
2023-03-25T01:37:04.443Z,3.75
2023-03-25T01:39:31.282Z,5.65
2023-03-25T01:41:57.908Z,4.05
2023-03-25T01:45:00.229Z,5.32
2023-03-25T01:47:27.536Z,5.60
2023-03-25T01:49:54.124Z,5.40
2023-03-25T01:52:24.854Z,4.55
2023-03-25T01:54:55.376Z,4.40
2023-03-25T01:57:23.686Z,6.47
2023-03-25T01:59:53.508Z,4.00
2023-03-25T02:02:21.200Z,6.80
2023-03-25T02:04:58.314Z,6.25
2023-03-25T02:07:30.602Z,5.37
2023-03-25T02:10:01.511Z,7.93
2023-03-25T02:12:29.225Z,7.55
2023-03-25T02:15:00.158Z,7.93
2023-03-25T02:17:51.193Z,7.75
2023-03-25T02:20:53.684Z,10.05
2023-03-25T02:23:41.340Z,7.60
2023-03-25T02:26:41.913Z,8.13
2023-03-25T02:29:28.604Z,7.72
2023-03-25T02:32:29.739Z,7.75
2023-03-25T02:35:24.020Z,8.27
2023-03-25T02:38:21.161Z,6.75
2023-03-25T02:40:57.942Z,5.80
2023-03-25T02:43:39.908Z,8.10
2023-03-25T02:46:11.426Z,3.80
2023-03-25T02:48:50.620Z,7.93
2023-03-25T02:51:23.845Z,4.53
2023-03-25T02:53:52.761Z,7.20
2023-03-25T02:56:22.739Z,7.95
2023-03-25T02:58:55.034Z,9.35
2023-03-25T03:01:26.203Z,5.70
2023-03-25T03:03:54.657Z,8.45
2023-03-25T03:06:23.741Z,6.62
2023-03-25T03:09:11.068Z,7.07
2023-03-25T03:11:57.948Z,5.57
2023-03-25T03:14:35.165Z,8.65
2023-03-25T03:17:27.795Z,9.15
2023-03-25T03:20:01.890Z,7.55
2023-03-25T03:22:46.216Z,8.85
2023-03-25T03:25:27.131Z,6.05
2023-03-25T03:28:01.497Z,7.07
2023-03-25T03:30:43.321Z,8.00
2023-03-25T03:33:38.285Z,5.78
2023-03-25T03:36:13.111Z,12.77
2023-03-25T03:38:47.191Z,11.45
2023-03-25T03:41:20.398Z,9.20
2023-03-25T03:43:53.402Z,9.25
2023-03-25T03:46:26.921Z,9.77
2023-03-25T03:48:56.672Z,9.40
2023-03-25T03:51:31.503Z,9.52
2023-03-25T03:54:03.343Z,8.40
2023-03-25T03:56:37.875Z,10.87
2023-03-25T03:59:12.086Z,8.63
2023-03-25T04:01:46.172Z,9.35
2023-03-25T04:04:20.809Z,11.70
2023-03-25T04:06:56.272Z,11.82
2023-03-25T04:09:54.500Z,11.63
2023-03-25T04:12:25.785Z,10.95
2023-03-25T04:14:54.762Z,10.25
2023-03-25T04:17:23.384Z,11.68
2023-03-25T04:19:52.984Z,13.45
2023-03-25T04:22:21.164Z,8.93
2023-03-25T04:24:51.146Z,9.32
2023-03-25T04:27:19.089Z,9.90
2023-03-25T04:29:47.084Z,13.02
2023-03-25T04:32:14.243Z,9.98
2023-03-25T04:34:41.426Z,11.50
2023-03-25T04:37:08.352Z,13.13
2023-03-25T04:39:34.890Z,15.07
2023-03-25T04:42:02.532Z,16.08
2023-03-25T04:44:32.840Z,15.32
2023-03-25T04:47:01.728Z,14.63
2023-03-25T04:49:28.411Z,14.23
2023-03-25T04:51:56.353Z,11.35
2023-03-25T04:54:23.594Z,12.63
2023-03-25T04:56:51.510Z,14.90
2023-03-25T04:59:19.267Z,12.77
2023-03-25T05:01:46.858Z,13.25
2023-03-25T05:04:16.677Z,12.07
2023-03-25T05:06:46.563Z,12.82
2023-03-25T05:09:16.057Z,12.60
2023-03-25T05:11:42.978Z,9.20
2023-03-25T05:14:10.364Z,9.98
2023-03-25T05:16:37.405Z,9.50
2023-03-25T05:19:05.909Z,9.82
2023-03-25T05:21:35.690Z,10.25
2023-03-25T05:24:03.876Z,10.88
2023-03-25T05:26:33.687Z,10.45
2023-03-25T05:29:05.176Z,9.10
2023-03-25T05:31:31.987Z,10.32
2023-03-25T05:33:58.587Z,6.80
2023-03-25T05:36:25.214Z,7.45
2023-03-25T05:38:53.872Z,7.80
2023-03-25T05:41:22.186Z,8.02
2023-03-25T05:43:50.323Z,6.62
2023-03-25T05:46:18.480Z,10.10
2023-03-25T05:48:45.951Z,7.22
2023-03-25T05:51:15.904Z,5.65
2023-03-25T05:53:44.258Z,8.48
2023-03-25T05:56:11.306Z,6.62
2023-03-25T05:58:38.917Z,5.70
2023-03-25T06:01:06.101Z,6.43
2023-03-25T06:03:33.678Z,9.88
2023-03-25T06:06:01.154Z,6.35
2023-03-25T06:08:29.285Z,6.78
2023-03-25T06:10:57.860Z,7.47
2023-03-25T06:13:24.857Z,6.55
2023-03-25T06:15:55.472Z,6.90
2023-03-25T06:18:24.223Z,4.97
2023-03-25T06:20:56.262Z,5.25
2023-03-25T06:23:24.335Z,4.62
2023-03-25T06:25:51.053Z,7.45
2023-03-25T06:28:18.604Z,7.75
2023-03-25T06:30:46.630Z,7.37
2023-03-25T06:33:14.534Z,7.37
2023-03-25T06:36:01.186Z,6.00
2023-03-25T06:38:29.385Z,5.55
2023-03-25T06:40:57.716Z,6.15
2023-03-25T06:43:24.753Z,4.53
2023-03-25T06:45:52.563Z,6.72
2023-03-25T06:48:20.166Z,6.65
2023-03-25T06:50:46.924Z,6.97
2023-03-25T06:53:13.497Z,7.07
2023-03-25T06:55:40.797Z,5.50
2023-03-25T06:58:07.594Z,5.07
2023-03-25T07:00:34.206Z,8.20
2023-03-25T07:03:01.159Z,6.03
2023-03-25T07:05:28.251Z,5.90
2023-03-25T07:07:54.869Z,7.28
2023-03-25T07:10:21.344Z,6.55
2023-03-25T07:12:48.278Z,8.00
2023-03-25T07:15:14.891Z,7.28
2023-03-25T07:17:43.155Z,7.45
2023-03-25T07:20:12.142Z,6.07
2023-03-25T07:22:40.083Z,6.65
2023-03-25T07:25:06.936Z,6.00
2023-03-25T07:27:33.665Z,5.12
2023-03-25T07:30:01.158Z,7.30
2023-03-25T07:32:29.672Z,5.75
2023-03-25T07:34:56.948Z,6.12
2023-03-25T07:37:23.430Z,6.22
2023-03-25T07:39:50.064Z,8.23
2023-03-25T07:42:17.009Z,5.95
2023-03-25T07:44:45.896Z,7.53
2023-03-25T07:47:12.339Z,6.62
2023-03-25T07:49:40.403Z,8.48
2023-03-25T07:52:07.152Z,7.25
2023-03-25T07:54:33.625Z,8.10
2023-03-25T07:57:00.383Z,5.53
2023-03-25T07:59:28.829Z,6.40
2023-03-25T08:01:55.893Z,7.93
2023-03-25T08:04:22.829Z,7.28
2023-03-25T08:06:49.337Z,7.20
2023-03-25T08:09:15.818Z,8.13
2023-03-25T08:11:42.705Z,8.02
2023-03-25T08:14:09.163Z,7.65
2023-03-25T08:16:35.673Z,8.52
2023-03-25T08:19:02.551Z,8.27
2023-03-25T08:21:29.588Z,7.43
2023-03-25T08:24:02.607Z,8.48
2023-03-25T08:26:30.650Z,10.45
2023-03-25T08:28:58.040Z,8.70
2023-03-25T08:31:25.973Z,6.40
2023-03-25T08:33:52.791Z,9.05
2023-03-25T08:36:22.467Z,7.28
2023-03-25T08:38:49.799Z,11.20
2023-03-25T08:41:17.312Z,5.72
2023-03-25T08:43:45.137Z,11.80
2023-03-25T08:46:12.273Z,10.13
2023-03-25T08:48:39.703Z,8.52
2023-03-25T08:51:06.699Z,5.70
2023-03-25T08:53:33.251Z,8.98
2023-03-25T08:56:00.093Z,14.63
2023-03-25T08:58:26.852Z,7.12
2023-03-25T09:00:55.058Z,9.38
2023-03-25T09:03:22.965Z,9.10
2023-03-25T09:05:49.897Z,8.30
2023-03-25T09:08:16.741Z,6.93
2023-03-25T09:10:43.511Z,7.50
2023-03-25T09:13:10.466Z,9.52
2023-03-25T09:15:37.033Z,8.10
2023-03-25T09:18:05.174Z,8.75
2023-03-25T09:20:33.080Z,11.95
2023-03-25T09:22:59.965Z,9.70
2023-03-25T09:25:27.771Z,9.50
2023-03-25T09:27:54.280Z,10.77
2023-03-25T09:30:20.760Z,9.95
2023-03-25T09:32:47.560Z,9.57
2023-03-25T09:35:14.024Z,13.05
2023-03-25T09:37:40.539Z,8.88
2023-03-25T09:40:08.570Z,11.95
2023-03-25T09:42:58.954Z,10.10
2023-03-25T09:45:46.969Z,9.82
2023-03-25T09:48:37.664Z,11.68
2023-03-25T09:51:14.925Z,12.73
2023-03-25T09:53:58.503Z,10.95
2023-03-25T09:56:29.240Z,10.07
2023-03-25T09:59:03.429Z,13.48
2023-03-25T10:01:57.352Z,11.80
2023-03-25T10:04:47.213Z,11.12
2023-03-25T10:07:41.429Z,10.00
2023-03-25T10:10:26.714Z,13.77
2023-03-25T10:13:09.106Z,10.00
2023-03-25T10:15:49.557Z,13.62
2023-03-25T10:18:56.000Z,14.20
2023-03-25T10:21:49.664Z,14.00
2023-03-25T10:24:26.750Z,16.35
2023-03-25T10:27:01.975Z,12.35
2023-03-25T10:29:38.044Z,13.32
2023-03-25T10:32:13.021Z,12.73
2023-03-25T10:34:49.246Z,15.05
2023-03-25T10:37:35.037Z,15.82
2023-03-25T10:40:32.994Z,14.85
2023-03-25T10:43:27.589Z,11.23
2023-03-25T10:46:00.548Z,10.10
2023-03-25T10:48:29.204Z,10.27
2023-03-25T10:51:03.984Z,11.23
2023-03-25T10:53:30.902Z,11.95
2023-03-25T10:56:06.260Z,12.15
2023-03-25T10:58:36.646Z,13.27
2023-03-25T11:01:12.818Z,13.68
2023-03-25T11:03:41.352Z,13.88
2023-03-25T11:06:23.617Z,12.75
2023-03-25T11:09:11.684Z,14.15
2023-03-25T11:11:38.271Z,14.75
2023-03-25T11:14:05.212Z,16.70
2023-03-25T11:16:35.085Z,18.25
2023-03-25T11:19:03.202Z,18.87
2023-03-25T11:21:35.714Z,14.95
2023-03-25T11:24:05.783Z,12.90
2023-03-25T11:26:41.360Z,13.75
2023-03-25T11:29:14.124Z,14.32
2023-03-25T11:34:24.612Z,13.85
2023-03-25T11:36:59.108Z,12.85
2023-03-25T11:39:34.673Z,15.07
2023-03-25T11:42:28.207Z,10.88
2023-03-25T11:47:30.715Z,12.20
2023-03-25T11:49:57.573Z,14.45
2023-03-25T11:52:27.073Z,13.27
2023-03-25T11:54:55.617Z,10.57
2023-03-25T11:57:27.162Z,13.27
2023-03-25T12:00:11.233Z,12.40
2023-03-25T12:02:40.513Z,9.40
2023-03-25T12:05:14.280Z,16.98
2023-03-25T12:07:49.488Z,12.07
2023-03-25T12:10:54.304Z,10.60
2023-03-25T12:13:56.612Z,12.02
2023-03-25T12:16:51.657Z,13.48
2023-03-25T12:19:57.972Z,11.98
2023-03-25T12:22:58.312Z,13.20
2023-03-25T12:25:53.272Z,11.38
2023-03-25T12:28:44.231Z,12.30
2023-03-25T12:31:45.892Z,13.45
2023-03-25T12:34:39.831Z,14.07
2023-03-25T12:37:34.294Z,11.60
2023-03-25T12:40:30.781Z,10.63
2023-03-25T12:43:09.483Z,13.98
2023-03-25T12:45:50.441Z,12.95
2023-03-25T12:48:37.135Z,10.63
2023-03-25T12:51:22.053Z,11.30
2023-03-25T12:54:12.051Z,12.02
2023-03-25T12:57:03.919Z,12.98
2023-03-25T12:59:53.643Z,11.90
2023-03-25T13:02:51.931Z,9.82
2023-03-25T13:05:45.594Z,15.68
2023-03-25T13:08:21.777Z,14.52
2023-03-25T13:10:56.004Z,17.67
2023-03-25T13:13:26.037Z,16.98
2023-03-25T13:16:14.529Z,18.70
2023-03-25T13:18:51.660Z,16.08
2023-03-25T13:21:24.038Z,14.63
2023-03-25T13:24:04.214Z,13.13
2023-03-25T13:26:32.074Z,13.57
2023-03-25T13:29:01.077Z,10.45
2023-03-25T13:31:34.913Z,9.98
2023-03-25T13:34:30.197Z,9.80
2023-03-25T13:37:06.321Z,8.82
2023-03-25T13:40:11.952Z,12.10
2023-03-25T13:43:06.545Z,12.30
2023-03-25T13:45:48.791Z,13.82
2023-03-25T13:48:23.088Z,11.95
2023-03-25T13:50:51.178Z,13.23
2023-03-25T13:53:29.392Z,10.82
2023-03-25T13:56:35.792Z,12.77
2023-03-25T13:59:42.114Z,11.95
2023-03-25T14:02:47.216Z,13.75
2023-03-25T14:05:44.648Z,11.02
2023-03-25T14:08:39.519Z,12.30
2023-03-25T14:11:28.953Z,12.98
2023-03-25T14:14:02.776Z,9.63
2023-03-25T14:16:35.757Z,12.98
2023-03-25T14:19:06.600Z,10.77
2023-03-25T14:21:47.146Z,12.00
2023-03-25T14:24:21.996Z,15.25
2023-03-25T14:26:53.028Z,13.80
2023-03-25T14:29:41.740Z,13.95
2023-03-25T14:32:32.664Z,13.62
2023-03-25T14:35:40.649Z,12.90
2023-03-25T14:38:42.892Z,11.52
2023-03-25T14:41:09.743Z,12.93
2023-03-25T14:43:40.355Z,10.75
2023-03-25T14:46:18.804Z,12.07
2023-03-25T14:48:51.939Z,15.00
2023-03-25T14:51:40.973Z,13.30
2023-03-25T14:54:29.827Z,11.18
2023-03-25T14:57:06.058Z,13.52
2023-03-25T14:59:42.305Z,12.27
2023-03-25T15:02:21.902Z,12.57
2023-03-25T15:04:59.981Z,10.43
2023-03-25T15:07:58.484Z,12.68
2023-03-25T15:10:44.281Z,11.98
2023-03-25T15:13:23.586Z,10.98
2023-03-25T15:16:26.426Z,10.57
2023-03-25T15:19:00.422Z,13.85
2023-03-25T15:21:32.029Z,13.10
2023-03-25T15:24:21.829Z,13.98
2023-03-25T15:26:49.614Z,12.77
2023-03-25T15:29:46.214Z,21.75
2023-03-25T15:32:42.264Z,13.02
2023-03-25T15:35:44.565Z,13.32
2023-03-25T15:38:42.775Z,10.82
2023-03-25T15:41:34.000Z,13.88
2023-03-25T15:44:35.195Z,14.38
2023-03-25T15:47:20.095Z,13.77
2023-03-25T15:50:18.794Z,18.12
2023-03-25T15:53:01.660Z,14.20
2023-03-25T15:55:51.006Z,15.90
2023-03-25T15:58:30.916Z,15.20
2023-03-25T16:01:12.174Z,12.45
2023-03-25T16:03:39.471Z,14.27
2023-03-25T16:06:07.805Z,15.27
2023-03-25T16:08:39.343Z,13.50
2023-03-25T16:11:23.744Z,14.82
2023-03-25T16:14:16.376Z,18.27
2023-03-25T16:16:50.255Z,17.60
2023-03-25T16:19:22.277Z,20.08
2023-03-25T16:21:51.551Z,17.05
2023-03-25T16:24:23.490Z,19.30
2023-03-25T16:26:50.611Z,18.75
2023-03-25T16:29:22.670Z,16.23
2023-03-25T16:31:53.470Z,15.65
2023-03-25T16:34:20.797Z,16.92
2023-03-25T16:36:49.756Z,15.68
2023-03-25T16:39:17.370Z,16.55
2023-03-25T16:41:49.496Z,13.52
2023-03-25T16:44:21.378Z,18.62
2023-03-25T16:46:51.211Z,17.53
2023-03-25T16:49:28.410Z,17.80
2023-03-25T16:51:57.050Z,18.67
2023-03-25T16:54:51.250Z,19.17
2023-03-25T16:57:24.479Z,16.92
2023-03-25T16:59:53.434Z,18.95
2023-03-25T17:02:30.906Z,17.50
2023-03-25T17:05:18.297Z,16.02
2023-03-25T17:07:47.692Z,17.08
2023-03-25T17:10:25.657Z,18.35
2023-03-25T17:12:57.943Z,15.55
2023-03-25T17:15:26.596Z,15.53
2023-03-25T17:18:00.425Z,14.80
2023-03-25T17:20:36.102Z,19.10
2023-03-25T17:23:18.416Z,15.68
2023-03-25T17:26:06.398Z,14.63
2023-03-25T17:28:39.365Z,15.50
2023-03-25T17:31:35.789Z,16.62
2023-03-25T17:34:07.989Z,16.98
2023-03-25T17:36:37.362Z,17.80
2023-03-25T17:39:12.672Z,15.35
2023-03-25T17:41:39.814Z,15.40
2023-03-25T17:44:06.969Z,12.27
2023-03-25T17:46:34.542Z,13.02
2023-03-25T17:49:01.433Z,14.45
2023-03-25T17:51:30.573Z,13.60
2023-03-25T17:53:57.109Z,14.35
2023-03-25T17:56:26.941Z,15.75
2023-03-25T17:59:03.414Z,14.82
2023-03-25T18:01:32.003Z,12.75
2023-03-25T18:03:58.786Z,15.63
2023-03-25T18:06:27.616Z,15.02
2023-03-25T18:08:55.121Z,16.60
2023-03-25T18:11:22.379Z,15.82
2023-03-25T18:13:49.194Z,15.82
2023-03-25T18:16:19.888Z,11.15
2023-03-25T18:18:47.136Z,11.75
2023-03-25T18:21:15.770Z,12.73
2023-03-25T18:23:46.979Z,11.65
2023-03-25T18:26:16.626Z,16.05
2023-03-25T18:28:44.064Z,11.90
2023-03-25T18:31:16.070Z,10.57
2023-03-25T18:33:45.527Z,12.00
2023-03-25T18:36:14.055Z,12.68
2023-03-25T18:38:41.128Z,13.60
2023-03-25T18:41:10.504Z,17.58
2023-03-25T18:43:37.110Z,12.70
2023-03-25T18:46:04.707Z,13.77
2023-03-25T18:48:31.994Z,13.65
2023-03-25T18:50:59.493Z,13.95
2023-03-25T18:53:28.395Z,14.82
2023-03-25T18:55:59.254Z,18.50
2023-03-25T18:58:30.461Z,11.40
2023-03-25T19:00:58.343Z,20.35
2023-03-25T19:03:40.741Z,20.17
2023-03-25T19:06:12.380Z,19.60
2023-03-25T19:08:40.314Z,18.40
2023-03-25T19:11:19.104Z,17.33
2023-03-25T19:13:48.347Z,19.85
2023-03-25T19:16:14.995Z,18.58
2023-03-25T19:18:41.642Z,20.42
2023-03-25T19:21:09.889Z,18.08
2023-03-25T19:23:37.067Z,22.83
2023-03-25T19:26:03.727Z,23.60
2023-03-25T19:28:30.485Z,23.00
2023-03-25T19:31:00.434Z,19.08
2023-03-25T19:33:30.217Z,17.85
2023-03-25T19:36:00.439Z,17.15
2023-03-25T19:38:28.051Z,20.10
2023-03-25T19:41:06.016Z,16.65
2023-03-25T19:43:33.127Z,19.00
2023-03-25T19:46:00.292Z,18.35
2023-03-25T19:48:29.088Z,24.95
2023-03-25T19:50:56.699Z,25.85
2023-03-25T19:53:25.477Z,20.92
2023-03-25T19:55:52.836Z,23.00
2023-03-25T19:58:21.991Z,21.15
2023-03-25T20:00:48.742Z,20.90
2023-03-25T20:03:15.777Z,23.08
2023-03-25T20:05:42.316Z,19.50
2023-03-25T20:08:09.027Z,24.35
2023-03-25T20:10:38.787Z,19.08
2023-03-25T20:13:05.476Z,18.12
2023-03-25T20:15:32.437Z,23.73
2023-03-25T20:17:59.656Z,21.90
2023-03-25T20:20:26.358Z,20.15
2023-03-25T20:22:53.336Z,22.15
2023-03-25T20:25:20.712Z,20.25
2023-03-25T20:27:47.243Z,37.10
2023-03-25T20:30:17.413Z,31.90
2023-03-25T20:32:47.523Z,38.05
2023-03-25T20:35:16.051Z,16.25
2023-03-25T20:37:44.304Z,22.92
2023-03-25T20:40:14.854Z,21.37
2023-03-25T20:42:43.223Z,13.40
2023-03-25T20:45:13.016Z,66.18
2023-03-25T20:47:40.834Z,22.10
